sensor_id;sensor_type;location;lat;lon;timestamp;temperature;humidity
17671;DHT22;8954;48.694;8.940;2023-03-14T00:01:23;9.30;99.90
17671;DHT22;8954;48.694;8.940;2023-03-14T00:03:50;9.30;99.90
17671;DHT22;8954;48.694;8.940;2023-03-14T00:06:16;9.20;99.90
17671;DHT22;8954;48.694;8.940;2023-03-14T00:08:43;9.20;99.90
17671;DHT22;8954;48.694;8.940;2023-03-14T00:11:11;9.20;99.90
17671;DHT22;8954;48.694;8.940;2023-03-14T00:13:38;9.30;99.90
17671;DHT22;8954;48.694;8.940;2023-03-14T00:16:09;9.30;99.90
17671;DHT22;8954;48.694;8.940;2023-03-14T00:18:35;9.30;99.90
17671;DHT22;8954;48.694;8.940;2023-03-14T00:21:02;9.20;99.90
17671;DHT22;8954;48.694;8.940;2023-03-14T00:23:29;9.30;99.90
17671;DHT22;8954;48.694;8.940;2023-03-14T00:26:03;9.20;99.90
17671;DHT22;8954;48.694;8.940;2023-03-14T00:28:29;9.20;99.90
17671;DHT22;8954;48.694;8.940;2023-03-14T00:30:55;9.30;99.90
17671;DHT22;8954;48.694;8.940;2023-03-14T00:33:21;9.30;99.90
17671;DHT22;8954;48.694;8.940;2023-03-14T00:35:58;9.30;99.90
17671;DHT22;8954;48.694;8.940;2023-03-14T00:38:24;9.40;99.90
17671;DHT22;8954;48.694;8.940;2023-03-14T00:40:50;9.40;99.90
17671;DHT22;8954;48.694;8.940;2023-03-14T00:43:17;9.30;99.90
17671;DHT22;8954;48.694;8.940;2023-03-14T00:45:42;9.30;99.90
17671;DHT22;8954;48.694;8.940;2023-03-14T00:48:08;9.40;99.90
17671;DHT22;8954;48.694;8.940;2023-03-14T00:50:33;9.30;99.90
17671;DHT22;8954;48.694;8.940;2023-03-14T00:52:59;9.20;99.90
17671;DHT22;8954;48.694;8.940;2023-03-14T00:55:25;9.20;99.90
17671;DHT22;8954;48.694;8.940;2023-03-14T00:57:50;9.20;99.90
17671;DHT22;8954;48.694;8.940;2023-03-14T01:00:16;9.30;99.90
17671;DHT22;8954;48.694;8.940;2023-03-14T01:02:41;9.40;99.90
17671;DHT22;8954;48.694;8.940;2023-03-14T01:05:07;9.40;99.90
17671;DHT22;8954;48.694;8.940;2023-03-14T01:07:35;9.40;99.90
17671;DHT22;8954;48.694;8.940;2023-03-14T01:10:01;9.40;99.90
17671;DHT22;8954;48.694;8.940;2023-03-14T01:12:27;9.50;99.90
17671;DHT22;8954;48.694;8.940;2023-03-14T01:14:53;9.50;99.90
17671;DHT22;8954;48.694;8.940;2023-03-14T01:17:18;9.40;99.90
17671;DHT22;8954;48.694;8.940;2023-03-14T01:19:44;9.50;99.90
17671;DHT22;8954;48.694;8.940;2023-03-14T01:22:09;9.40;99.90
17671;DHT22;8954;48.694;8.940;2023-03-14T01:24:37;9.40;99.90
17671;DHT22;8954;48.694;8.940;2023-03-14T01:27:02;9.50;99.90
17671;DHT22;8954;48.694;8.940;2023-03-14T01:29:28;9.60;99.90
17671;DHT22;8954;48.694;8.940;2023-03-14T01:31:54;9.60;99.90
17671;DHT22;8954;48.694;8.940;2023-03-14T01:34:19;9.60;99.90
17671;DHT22;8954;48.694;8.940;2023-03-14T01:36:45;9.60;99.90
17671;DHT22;8954;48.694;8.940;2023-03-14T01:39:10;9.70;99.90
17671;DHT22;8954;48.694;8.940;2023-03-14T01:41:36;9.60;99.90
17671;DHT22;8954;48.694;8.940;2023-03-14T01:44:02;9.60;99.90
17671;DHT22;8954;48.694;8.940;2023-03-14T01:46:41;9.50;99.90
17671;DHT22;8954;48.694;8.940;2023-03-14T01:49:29;9.50;99.90
17671;DHT22;8954;48.694;8.940;2023-03-14T01:52:02;9.40;99.90
17671;DHT22;8954;48.694;8.940;2023-03-14T01:54:41;9.30;99.90
17671;DHT22;8954;48.694;8.940;2023-03-14T01:57:12;9.30;99.90
17671;DHT22;8954;48.694;8.940;2023-03-14T01:59:42;9.30;99.90
17671;DHT22;8954;48.694;8.940;2023-03-14T02:02:09;9.20;99.90
17671;DHT22;8954;48.694;8.940;2023-03-14T02:04:37;9.20;99.90
17671;DHT22;8954;48.694;8.940;2023-03-14T02:07:17;9.20;99.90
17671;DHT22;8954;48.694;8.940;2023-03-14T02:09:45;9.20;99.90
17671;DHT22;8954;48.694;8.940;2023-03-14T02:12:15;9.20;99.90
17671;DHT22;8954;48.694;8.940;2023-03-14T02:14:41;9.10;99.90
17671;DHT22;8954;48.694;8.940;2023-03-14T02:17:11;9.20;99.90
17671;DHT22;8954;48.694;8.940;2023-03-14T02:22:10;9.10;99.90
17671;DHT22;8954;48.694;8.940;2023-03-14T02:24:56;9.20;99.90
17671;DHT22;8954;48.694;8.940;2023-03-14T02:27:25;9.30;99.90
17671;DHT22;8954;48.694;8.940;2023-03-14T02:29:52;9.20;99.90
17671;DHT22;8954;48.694;8.940;2023-03-14T02:32:20;9.20;99.90
17671;DHT22;8954;48.694;8.940;2023-03-14T02:34:50;9.20;99.90
17671;DHT22;8954;48.694;8.940;2023-03-14T02:37:19;9.20;99.90
17671;DHT22;8954;48.694;8.940;2023-03-14T02:39:46;9.30;99.90
17671;DHT22;8954;48.694;8.940;2023-03-14T02:42:14;9.30;99.90
17671;DHT22;8954;48.694;8.940;2023-03-14T02:44:52;9.30;99.90
17671;DHT22;8954;48.694;8.940;2023-03-14T02:47:21;9.40;99.90
17671;DHT22;8954;48.694;8.940;2023-03-14T02:49:47;9.30;99.90
17671;DHT22;8954;48.694;8.940;2023-03-14T02:52:13;9.20;99.90
17671;DHT22;8954;48.694;8.940;2023-03-14T02:54:39;9.10;99.90
17671;DHT22;8954;48.694;8.940;2023-03-14T02:57:04;9.00;99.90
17671;DHT22;8954;48.694;8.940;2023-03-14T02:59:30;9.10;99.90
17671;DHT22;8954;48.694;8.940;2023-03-14T03:01:55;9.00;99.90
17671;DHT22;8954;48.694;8.940;2023-03-14T03:04:21;9.00;99.90
17671;DHT22;8954;48.694;8.940;2023-03-14T03:06:46;9.10;99.90
17671;DHT22;8954;48.694;8.940;2023-03-14T03:09:12;9.10;99.90
17671;DHT22;8954;48.694;8.940;2023-03-14T03:11:37;9.10;99.90
17671;DHT22;8954;48.694;8.940;2023-03-14T03:14:03;9.00;99.90
17671;DHT22;8954;48.694;8.940;2023-03-14T03:16:28;9.00;99.90
17671;DHT22;8954;48.694;8.940;2023-03-14T03:18:54;9.00;99.90
17671;DHT22;8954;48.694;8.940;2023-03-14T03:21:19;8.90;99.90
17671;DHT22;8954;48.694;8.940;2023-03-14T03:23:48;8.90;99.90
17671;DHT22;8954;48.694;8.940;2023-03-14T03:26:14;8.90;99.90
17671;DHT22;8954;48.694;8.940;2023-03-14T03:28:40;8.80;99.90
17671;DHT22;8954;48.694;8.940;2023-03-14T03:31:09;8.80;99.90
17671;DHT22;8954;48.694;8.940;2023-03-14T03:33:36;8.70;99.90
17671;DHT22;8954;48.694;8.940;2023-03-14T03:36:01;8.70;99.90
17671;DHT22;8954;48.694;8.940;2023-03-14T03:38:27;8.70;99.90
17671;DHT22;8954;48.694;8.940;2023-03-14T03:40:52;8.70;99.90
17671;DHT22;8954;48.694;8.940;2023-03-14T03:43:18;8.70;99.90
17671;DHT22;8954;48.694;8.940;2023-03-14T03:45:43;8.60;99.90
17671;DHT22;8954;48.694;8.940;2023-03-14T03:48:09;8.60;99.90
17671;DHT22;8954;48.694;8.940;2023-03-14T03:50:35;8.60;99.90
17671;DHT22;8954;48.694;8.940;2023-03-14T03:53:00;8.60;99.90
17671;DHT22;8954;48.694;8.940;2023-03-14T03:55:26;8.50;99.90
17671;DHT22;8954;48.694;8.940;2023-03-14T03:57:53;8.40;99.90
17671;DHT22;8954;48.694;8.940;2023-03-14T04:00:18;8.40;99.90
17671;DHT22;8954;48.694;8.940;2023-03-14T04:02:44;8.40;99.90
17671;DHT22;8954;48.694;8.940;2023-03-14T04:05:10;8.50;99.90
17671;DHT22;8954;48.694;8.940;2023-03-14T04:07:35;8.40;99.90
17671;DHT22;8954;48.694;8.940;2023-03-14T04:10:01;8.40;99.90
17671;DHT22;8954;48.694;8.940;2023-03-14T04:12:26;8.50;99.90
17671;DHT22;8954;48.694;8.940;2023-03-14T04:14:52;8.40;99.90
17671;DHT22;8954;48.694;8.940;2023-03-14T04:17:17;8.30;99.90
17671;DHT22;8954;48.694;8.940;2023-03-14T04:19:43;8.40;99.90
17671;DHT22;8954;48.694;8.940;2023-03-14T04:22:09;8.40;99.90
17671;DHT22;8954;48.694;8.940;2023-03-14T04:24:34;8.40;99.90
17671;DHT22;8954;48.694;8.940;2023-03-14T04:27:00;8.40;99.90
17671;DHT22;8954;48.694;8.940;2023-03-14T04:29:25;8.40;99.90
17671;DHT22;8954;48.694;8.940;2023-03-14T04:31:51;8.40;99.90
17671;DHT22;8954;48.694;8.940;2023-03-14T04:34:16;8.40;99.90
17671;DHT22;8954;48.694;8.940;2023-03-14T04:36:42;8.40;99.90
17671;DHT22;8954;48.694;8.940;2023-03-14T04:39:08;8.40;99.90
17671;DHT22;8954;48.694;8.940;2023-03-14T04:41:33;8.40;99.90
17671;DHT22;8954;48.694;8.940;2023-03-14T04:43:59;8.50;99.90
17671;DHT22;8954;48.694;8.940;2023-03-14T04:46:24;8.40;99.90
17671;DHT22;8954;48.694;8.940;2023-03-14T04:48:50;8.40;99.90
17671;DHT22;8954;48.694;8.940;2023-03-14T04:51:15;8.50;99.90
17671;DHT22;8954;48.694;8.940;2023-03-14T04:53:41;8.50;99.90
17671;DHT22;8954;48.694;8.940;2023-03-14T04:56:07;8.60;99.90
17671;DHT22;8954;48.694;8.940;2023-03-14T04:58:32;8.50;99.90
17671;DHT22;8954;48.694;8.940;2023-03-14T05:01:05;8.40;99.90
17671;DHT22;8954;48.694;8.940;2023-03-14T05:03:30;8.40;99.90
17671;DHT22;8954;48.694;8.940;2023-03-14T05:05:56;8.50;99.90
17671;DHT22;8954;48.694;8.940;2023-03-14T05:08:22;8.40;99.90
17671;DHT22;8954;48.694;8.940;2023-03-14T05:10:53;8.50;99.90
17671;DHT22;8954;48.694;8.940;2023-03-14T05:13:18;8.40;99.90
17671;DHT22;8954;48.694;8.940;2023-03-14T05:15:44;8.40;99.90
17671;DHT22;8954;48.694;8.940;2023-03-14T05:18:09;8.40;99.90
17671;DHT22;8954;48.694;8.940;2023-03-14T05:20:35;8.30;99.90
17671;DHT22;8954;48.694;8.940;2023-03-14T05:23:01;8.40;99.90
17671;DHT22;8954;48.694;8.940;2023-03-14T05:25:26;8.40;99.90
17671;DHT22;8954;48.694;8.940;2023-03-14T05:27:54;8.60;99.90
17671;DHT22;8954;48.694;8.940;2023-03-14T05:30:20;8.60;99.90
17671;DHT22;8954;48.694;8.940;2023-03-14T05:32:47;8.60;99.90
17671;DHT22;8954;48.694;8.940;2023-03-14T05:35:12;8.70;99.90
17671;DHT22;8954;48.694;8.940;2023-03-14T05:37:38;8.70;99.90
17671;DHT22;8954;48.694;8.940;2023-03-14T05:40:05;8.70;99.90
17671;DHT22;8954;48.694;8.940;2023-03-14T05:42:32;8.70;99.90
17671;DHT22;8954;48.694;8.940;2023-03-14T05:44:57;8.70;99.90
17671;DHT22;8954;48.694;8.940;2023-03-14T05:47:23;8.80;99.90
17671;DHT22;8954;48.694;8.940;2023-03-14T05:49:49;8.80;99.90
17671;DHT22;8954;48.694;8.940;2023-03-14T05:52:14;8.70;99.90
17671;DHT22;8954;48.694;8.940;2023-03-14T05:54:40;8.60;99.90
17671;DHT22;8954;48.694;8.940;2023-03-14T05:57:06;8.60;99.90
17671;DHT22;8954;48.694;8.940;2023-03-14T05:59:31;8.50;99.90
17671;DHT22;8954;48.694;8.940;2023-03-14T06:01:57;8.60;99.90
17671;DHT22;8954;48.694;8.940;2023-03-14T06:04:22;8.60;99.90
17671;DHT22;8954;48.694;8.940;2023-03-14T06:06:48;8.60;99.90
17671;DHT22;8954;48.694;8.940;2023-03-14T06:09:13;8.50;99.90
17671;DHT22;8954;48.694;8.940;2023-03-14T06:11:39;8.60;99.90
17671;DHT22;8954;48.694;8.940;2023-03-14T06:14:04;8.70;99.90
17671;DHT22;8954;48.694;8.940;2023-03-14T06:16:30;8.70;99.90
17671;DHT22;8954;48.694;8.940;2023-03-14T06:19:00;8.60;99.90
17671;DHT22;8954;48.694;8.940;2023-03-14T06:21:26;8.60;99.90
17671;DHT22;8954;48.694;8.940;2023-03-14T06:23:51;8.70;99.90
17671;DHT22;8954;48.694;8.940;2023-03-14T06:26:17;8.80;99.90
17671;DHT22;8954;48.694;8.940;2023-03-14T06:28:42;8.70;99.90
17671;DHT22;8954;48.694;8.940;2023-03-14T06:31:08;8.70;99.90
17671;DHT22;8954;48.694;8.940;2023-03-14T06:33:33;8.80;99.90
17671;DHT22;8954;48.694;8.940;2023-03-14T06:35:59;8.90;99.90
17671;DHT22;8954;48.694;8.940;2023-03-14T06:38:24;8.90;99.90
17671;DHT22;8954;48.694;8.940;2023-03-14T06:40:50;9.00;99.90
17671;DHT22;8954;48.694;8.940;2023-03-14T06:43:15;9.10;99.90
17671;DHT22;8954;48.694;8.940;2023-03-14T06:45:41;9.60;99.90
17671;DHT22;8954;48.694;8.940;2023-03-14T06:48:06;10.00;99.90
17671;DHT22;8954;48.694;8.940;2023-03-14T06:50:32;10.40;99.90
17671;DHT22;8954;48.694;8.940;2023-03-14T06:52:58;10.60;99.90
17671;DHT22;8954;48.694;8.940;2023-03-14T06:55:23;10.50;99.90
17671;DHT22;8954;48.694;8.940;2023-03-14T06:57:49;10.30;99.90
17671;DHT22;8954;48.694;8.940;2023-03-14T07:00:14;10.40;99.90
17671;DHT22;8954;48.694;8.940;2023-03-14T07:02:40;10.70;99.90
17671;DHT22;8954;48.694;8.940;2023-03-14T07:05:06;11.30;99.90
17671;DHT22;8954;48.694;8.940;2023-03-14T07:07:32;12.10;99.90
17671;DHT22;8954;48.694;8.940;2023-03-14T07:09:58;12.00;99.90
17671;DHT22;8954;48.694;8.940;2023-03-14T07:12:23;11.80;99.90
17671;DHT22;8954;48.694;8.940;2023-03-14T07:14:49;11.70;99.90
17671;DHT22;8954;48.694;8.940;2023-03-14T07:17:14;11.90;99.90
17671;DHT22;8954;48.694;8.940;2023-03-14T07:19:40;12.60;99.90
17671;DHT22;8954;48.694;8.940;2023-03-14T07:22:06;13.10;99.90
17671;DHT22;8954;48.694;8.940;2023-03-14T07:24:31;13.50;99.90
17671;DHT22;8954;48.694;8.940;2023-03-14T07:26:57;13.90;99.90
17671;DHT22;8954;48.694;8.940;2023-03-14T07:29:22;13.30;99.90
17671;DHT22;8954;48.694;8.940;2023-03-14T07:31:48;13.60;99.90
17671;DHT22;8954;48.694;8.940;2023-03-14T07:34:13;14.10;99.90
17671;DHT22;8954;48.694;8.940;2023-03-14T07:36:39;14.30;99.90
17671;DHT22;8954;48.694;8.940;2023-03-14T07:39:05;14.80;99.90
17671;DHT22;8954;48.694;8.940;2023-03-14T07:41:31;15.10;99.90
17671;DHT22;8954;48.694;8.940;2023-03-14T07:43:57;15.00;99.90
17671;DHT22;8954;48.694;8.940;2023-03-14T07:46:22;15.40;99.90
17671;DHT22;8954;48.694;8.940;2023-03-14T07:48:48;16.30;99.90
17671;DHT22;8954;48.694;8.940;2023-03-14T07:51:13;17.30;99.90
17671;DHT22;8954;48.694;8.940;2023-03-14T07:53:40;17.30;99.90
17671;DHT22;8954;48.694;8.940;2023-03-14T07:56:06;15.70;99.90
17671;DHT22;8954;48.694;8.940;2023-03-14T07:58:32;15.30;99.90
17671;DHT22;8954;48.694;8.940;2023-03-14T08:00:59;14.20;99.90
17671;DHT22;8954;48.694;8.940;2023-03-14T08:03:25;13.70;99.90
17671;DHT22;8954;48.694;8.940;2023-03-14T08:05:51;13.40;99.90
17671;DHT22;8954;48.694;8.940;2023-03-14T08:08:17;13.80;99.90
17671;DHT22;8954;48.694;8.940;2023-03-14T08:10:43;14.10;99.90
17671;DHT22;8954;48.694;8.940;2023-03-14T08:13:09;14.00;99.90
17671;DHT22;8954;48.694;8.940;2023-03-14T08:15:35;13.90;99.90
17671;DHT22;8954;48.694;8.940;2023-03-14T08:18:03;14.00;99.90
17671;DHT22;8954;48.694;8.940;2023-03-14T08:20:29;14.40;99.90
17671;DHT22;8954;48.694;8.940;2023-03-14T08:22:57;13.90;99.90
17671;DHT22;8954;48.694;8.940;2023-03-14T08:25:23;13.80;99.90
17671;DHT22;8954;48.694;8.940;2023-03-14T08:27:48;12.90;99.90
17671;DHT22;8954;48.694;8.940;2023-03-14T08:30:15;12.70;99.90
17671;DHT22;8954;48.694;8.940;2023-03-14T08:32:41;12.60;99.90
17671;DHT22;8954;48.694;8.940;2023-03-14T08:35:08;12.60;99.90
17671;DHT22;8954;48.694;8.940;2023-03-14T08:37:34;12.40;99.90
17671;DHT22;8954;48.694;8.940;2023-03-14T08:40:01;12.80;99.90
17671;DHT22;8954;48.694;8.940;2023-03-14T08:42:30;14.10;99.90
17671;DHT22;8954;48.694;8.940;2023-03-14T08:44:55;15.10;99.90
17671;DHT22;8954;48.694;8.940;2023-03-14T08:47:21;14.30;99.90
17671;DHT22;8954;48.694;8.940;2023-03-14T08:49:46;13.80;99.90
17671;DHT22;8954;48.694;8.940;2023-03-14T08:52:12;13.10;99.90
17671;DHT22;8954;48.694;8.940;2023-03-14T08:54:37;12.70;99.90
17671;DHT22;8954;48.694;8.940;2023-03-14T08:57:03;12.50;99.90
17671;DHT22;8954;48.694;8.940;2023-03-14T08:59:28;12.20;99.90
17671;DHT22;8954;48.694;8.940;2023-03-14T09:01:54;12.00;99.90
17671;DHT22;8954;48.694;8.940;2023-03-14T09:04:20;11.70;99.90
17671;DHT22;8954;48.694;8.940;2023-03-14T09:06:45;11.60;99.90
17671;DHT22;8954;48.694;8.940;2023-03-14T09:09:11;11.50;99.90
17671;DHT22;8954;48.694;8.940;2023-03-14T09:11:38;11.30;99.90
17671;DHT22;8954;48.694;8.940;2023-03-14T09:14:04;11.40;99.90
17671;DHT22;8954;48.694;8.940;2023-03-14T09:16:29;11.60;99.90
17671;DHT22;8954;48.694;8.940;2023-03-14T09:18:55;11.90;99.90
17671;DHT22;8954;48.694;8.940;2023-03-14T09:21:23;12.00;99.90
17671;DHT22;8954;48.694;8.940;2023-03-14T09:23:48;11.90;99.90
17671;DHT22;8954;48.694;8.940;2023-03-14T09:26:14;11.80;99.90
17671;DHT22;8954;48.694;8.940;2023-03-14T09:28:39;11.80;99.90
17671;DHT22;8954;48.694;8.940;2023-03-14T09:31:09;11.80;99.90
17671;DHT22;8954;48.694;8.940;2023-03-14T09:33:36;11.70;99.90
17671;DHT22;8954;48.694;8.940;2023-03-14T09:36:02;11.50;99.90
17671;DHT22;8954;48.694;8.940;2023-03-14T09:38:28;11.60;99.90
17671;DHT22;8954;48.694;8.940;2023-03-14T09:40:55;11.60;99.90
17671;DHT22;8954;48.694;8.940;2023-03-14T09:43:24;11.80;99.90
17671;DHT22;8954;48.694;8.940;2023-03-14T09:45:51;12.00;99.90
17671;DHT22;8954;48.694;8.940;2023-03-14T09:48:20;12.00;99.90
17671;DHT22;8954;48.694;8.940;2023-03-14T09:50:50;12.20;99.90
17671;DHT22;8954;48.694;8.940;2023-03-14T09:53:18;12.40;99.90
17671;DHT22;8954;48.694;8.940;2023-03-14T09:55:46;13.70;99.90
17671;DHT22;8954;48.694;8.940;2023-03-14T09:58:16;15.40;99.90
17671;DHT22;8954;48.694;8.940;2023-03-14T10:00:43;15.60;99.90
17671;DHT22;8954;48.694;8.940;2023-03-14T10:05:38;15.20;99.90
17671;DHT22;8954;48.694;8.940;2023-03-14T10:08:04;17.20;99.90
17671;DHT22;8954;48.694;8.940;2023-03-14T10:10:31;18.90;99.90
17671;DHT22;8954;48.694;8.940;2023-03-14T10:15:40;18.30;99.90
17671;DHT22;8954;48.694;8.940;2023-03-14T10:18:11;18.40;99.90
17671;DHT22;8954;48.694;8.940;2023-03-14T10:20:43;16.70;99.90
17671;DHT22;8954;48.694;8.940;2023-03-14T10:25:39;14.30;99.90
17671;DHT22;8954;48.694;8.940;2023-03-14T10:28:10;13.80;99.90
17671;DHT22;8954;48.694;8.940;2023-03-14T10:30:44;13.70;99.90
17671;DHT22;8954;48.694;8.940;2023-03-14T10:33:22;13.50;99.90
17671;DHT22;8954;48.694;8.940;2023-03-14T10:35:54;13.10;99.90
17671;DHT22;8954;48.694;8.940;2023-03-14T10:38:23;13.30;99.90
17671;DHT22;8954;48.694;8.940;2023-03-14T10:40:51;13.30;99.90
17671;DHT22;8954;48.694;8.940;2023-03-14T10:43:31;13.10;99.90
17671;DHT22;8954;48.694;8.940;2023-03-14T10:46:00;13.00;99.90
17671;DHT22;8954;48.694;8.940;2023-03-14T10:48:36;12.60;99.90
17671;DHT22;8954;48.694;8.940;2023-03-14T10:56:17;12.30;99.90
17671;DHT22;8954;48.694;8.940;2023-03-14T10:58:45;12.50;99.90
17671;DHT22;8954;48.694;8.940;2023-03-14T11:01:32;12.10;99.90
17671;DHT22;8954;48.694;8.940;2023-03-14T11:04:14;12.10;99.90
17671;DHT22;8954;48.694;8.940;2023-03-14T11:06:56;12.10;99.90
17671;DHT22;8954;48.694;8.940;2023-03-14T11:09:38;12.00;99.90
17671;DHT22;8954;48.694;8.940;2023-03-14T11:12:27;11.90;99.90
17671;DHT22;8954;48.694;8.940;2023-03-14T11:15:02;11.90;99.90
17671;DHT22;8954;48.694;8.940;2023-03-14T11:17:38;11.90;99.90
17671;DHT22;8954;48.694;8.940;2023-03-14T11:20:25;11.90;99.90
17671;DHT22;8954;48.694;8.940;2023-03-14T11:23:08;11.70;99.90
17671;DHT22;8954;48.694;8.940;2023-03-14T11:28:36;11.30;99.90
17671;DHT22;8954;48.694;8.940;2023-03-14T11:31:26;11.20;99.90
17671;DHT22;8954;48.694;8.940;2023-03-14T11:36:37;11.80;99.90
17671;DHT22;8954;48.694;8.940;2023-03-14T11:39:17;12.00;99.90
17671;DHT22;8954;48.694;8.940;2023-03-14T11:41:49;12.10;99.90
17671;DHT22;8954;48.694;8.940;2023-03-14T11:44:25;12.00;99.90
17671;DHT22;8954;48.694;8.940;2023-03-14T11:46:57;11.70;99.90
17671;DHT22;8954;48.694;8.940;2023-03-14T11:55:30;11.70;99.90
17671;DHT22;8954;48.694;8.940;2023-03-14T11:58:03;11.90;99.90
17671;DHT22;8954;48.694;8.940;2023-03-14T12:00:35;11.80;99.90
17671;DHT22;8954;48.694;8.940;2023-03-14T12:08:58;11.50;99.90
17671;DHT22;8954;48.694;8.940;2023-03-14T12:11:40;12.00;99.90
17671;DHT22;8954;48.694;8.940;2023-03-14T12:16:57;16.70;99.90
17671;DHT22;8954;48.694;8.940;2023-03-14T12:21:51;20.20;99.20
17671;DHT22;8954;48.694;8.940;2023-03-14T12:24:22;21.30;95.00
17671;DHT22;8954;48.694;8.940;2023-03-14T12:26:54;20.70;94.60
17671;DHT22;8954;48.694;8.940;2023-03-14T12:29:20;22.00;86.90
17671;DHT22;8954;48.694;8.940;2023-03-14T12:32:07;22.50;82.60
17671;DHT22;8954;48.694;8.940;2023-03-14T12:34:39;23.10;78.70
17671;DHT22;8954;48.694;8.940;2023-03-14T12:37:14;23.30;76.20
17671;DHT22;8954;48.694;8.940;2023-03-14T12:45:32;23.40;68.00
17671;DHT22;8954;48.694;8.940;2023-03-14T12:50:54;23.10;68.00
17671;DHT22;8954;48.694;8.940;2023-03-14T12:53:54;20.80;68.60
17671;DHT22;8954;48.694;8.940;2023-03-14T13:01:28;17.10;78.20
17671;DHT22;8954;48.694;8.940;2023-03-14T13:03:58;17.60;77.20
17671;DHT22;8954;48.694;8.940;2023-03-14T13:06:56;19.20;73.20
17671;DHT22;8954;48.694;8.940;2023-03-14T13:12:25;21.00;68.00
17671;DHT22;8954;48.694;8.940;2023-03-14T13:14:53;21.50;66.20
17671;DHT22;8954;48.694;8.940;2023-03-14T13:17:29;19.80;66.50
17671;DHT22;8954;48.694;8.940;2023-03-14T13:19:59;18.50;69.20
17671;DHT22;8954;48.694;8.940;2023-03-14T13:22:28;17.10;72.00
17671;DHT22;8954;48.694;8.940;2023-03-14T13:25:04;17.20;72.10
17671;DHT22;8954;48.694;8.940;2023-03-14T13:27:33;15.90;73.60
17671;DHT22;8954;48.694;8.940;2023-03-14T13:30:04;15.10;75.50
17671;DHT22;8954;48.694;8.940;2023-03-14T13:32:30;14.20;78.20
17671;DHT22;8954;48.694;8.940;2023-03-14T13:34:57;13.50;79.90
17671;DHT22;8954;48.694;8.940;2023-03-14T13:37:24;12.80;82.00
17671;DHT22;8954;48.694;8.940;2023-03-14T13:39:52;12.40;82.40
17671;DHT22;8954;48.694;8.940;2023-03-14T13:42:19;11.80;84.70
17671;DHT22;8954;48.694;8.940;2023-03-14T13:44:45;11.50;84.20
17671;DHT22;8954;48.694;8.940;2023-03-14T13:47:19;11.30;83.30
17671;DHT22;8954;48.694;8.940;2023-03-14T13:49:46;11.40;83.20
17671;DHT22;8954;48.694;8.940;2023-03-14T13:52:41;11.90;82.10
17671;DHT22;8954;48.694;8.940;2023-03-14T13:55:15;12.40;80.60
17671;DHT22;8954;48.694;8.940;2023-03-14T13:57:52;12.60;81.20
17671;DHT22;8954;48.694;8.940;2023-03-14T14:00:29;12.20;79.70
17671;DHT22;8954;48.694;8.940;2023-03-14T14:02:57;11.90;81.60
17671;DHT22;8954;48.694;8.940;2023-03-14T14:05:26;11.80;80.20
17671;DHT22;8954;48.694;8.940;2023-03-14T14:07:52;12.00;80.20
17671;DHT22;8954;48.694;8.940;2023-03-14T14:10:18;12.00;79.80
17671;DHT22;8954;48.694;8.940;2023-03-14T14:13:00;13.00;77.40
17671;DHT22;8954;48.694;8.940;2023-03-14T14:15:28;13.20;77.00
17671;DHT22;8954;48.694;8.940;2023-03-14T14:18:02;12.80;77.70
17671;DHT22;8954;48.694;8.940;2023-03-14T14:20:40;12.50;79.10
17671;DHT22;8954;48.694;8.940;2023-03-14T14:23:15;12.00;78.90
17671;DHT22;8954;48.694;8.940;2023-03-14T14:25:43;11.40;80.10
17671;DHT22;8954;48.694;8.940;2023-03-14T14:33:42;10.30;83.80
17671;DHT22;8954;48.694;8.940;2023-03-14T14:36:19;10.10;84.20
17671;DHT22;8954;48.694;8.940;2023-03-14T14:38:50;10.20;85.30
17671;DHT22;8954;48.694;8.940;2023-03-14T14:41:16;10.30;85.10
17671;DHT22;8954;48.694;8.940;2023-03-14T14:43:42;10.40;84.10
17671;DHT22;8954;48.694;8.940;2023-03-14T14:46:08;10.40;83.70
17671;DHT22;8954;48.694;8.940;2023-03-14T14:48:37;10.30;85.40
17671;DHT22;8954;48.694;8.940;2023-03-14T14:51:06;10.50;84.80
17671;DHT22;8954;48.694;8.940;2023-03-14T14:53:40;10.50;84.60
17671;DHT22;8954;48.694;8.940;2023-03-14T14:56:26;10.60;84.50
17671;DHT22;8954;48.694;8.940;2023-03-14T14:58:58;10.70;84.20
17671;DHT22;8954;48.694;8.940;2023-03-14T15:01:25;10.80;82.60
17671;DHT22;8954;48.694;8.940;2023-03-14T15:03:56;10.80;84.50
17671;DHT22;8954;48.694;8.940;2023-03-14T15:06:25;10.70;84.00
17671;DHT22;8954;48.694;8.940;2023-03-14T15:08:53;10.50;84.70
17671;DHT22;8954;48.694;8.940;2023-03-14T15:11:21;10.60;85.20
17671;DHT22;8954;48.694;8.940;2023-03-14T15:13:51;10.60;85.40
17671;DHT22;8954;48.694;8.940;2023-03-14T15:16:20;10.60;84.80
17671;DHT22;8954;48.694;8.940;2023-03-14T15:19:14;10.40;85.50
17671;DHT22;8954;48.694;8.940;2023-03-14T15:21:40;10.10;86.30
17671;DHT22;8954;48.694;8.940;2023-03-14T15:24:08;10.00;87.40
17671;DHT22;8954;48.694;8.940;2023-03-14T15:26:34;10.00;87.20
17671;DHT22;8954;48.694;8.940;2023-03-14T15:28:59;10.00;87.10
17671;DHT22;8954;48.694;8.940;2023-03-14T15:31:25;10.00;87.30
17671;DHT22;8954;48.694;8.940;2023-03-14T15:33:50;9.80;87.70
17671;DHT22;8954;48.694;8.940;2023-03-14T15:36:23;9.70;89.00
17671;DHT22;8954;48.694;8.940;2023-03-14T15:38:50;9.70;88.50
17671;DHT22;8954;48.694;8.940;2023-03-14T15:41:17;9.70;88.90
17671;DHT22;8954;48.694;8.940;2023-03-14T15:43:43;9.80;88.60
17671;DHT22;8954;48.694;8.940;2023-03-14T15:46:09;9.80;89.50
17671;DHT22;8954;48.694;8.940;2023-03-14T15:48:35;9.80;89.00
17671;DHT22;8954;48.694;8.940;2023-03-14T15:51:01;9.70;89.80
17671;DHT22;8954;48.694;8.940;2023-03-14T15:53:26;9.70;89.30
17671;DHT22;8954;48.694;8.940;2023-03-14T15:55:51;9.80;89.90
17671;DHT22;8954;48.694;8.940;2023-03-14T15:58:19;9.90;90.40
17671;DHT22;8954;48.694;8.940;2023-03-14T16:00:45;9.90;89.60
17671;DHT22;8954;48.694;8.940;2023-03-14T16:03:10;9.90;90.10
17671;DHT22;8954;48.694;8.940;2023-03-14T16:05:37;10.00;90.00
17671;DHT22;8954;48.694;8.940;2023-03-14T16:08:03;10.00;90.00
17671;DHT22;8954;48.694;8.940;2023-03-14T16:10:30;10.10;90.10
17671;DHT22;8954;48.694;8.940;2023-03-14T16:13:02;10.10;90.00
17671;DHT22;8954;48.694;8.940;2023-03-14T16:15:27;10.00;90.10
17671;DHT22;8954;48.694;8.940;2023-03-14T16:17:54;9.80;90.50
17671;DHT22;8954;48.694;8.940;2023-03-14T16:20:20;9.70;90.60
17671;DHT22;8954;48.694;8.940;2023-03-14T16:22:46;9.70;90.90
17671;DHT22;8954;48.694;8.940;2023-03-14T16:25:12;9.50;90.70
17671;DHT22;8954;48.694;8.940;2023-03-14T16:27:38;9.40;91.20
17671;DHT22;8954;48.694;8.940;2023-03-14T16:30:04;9.20;91.80
17671;DHT22;8954;48.694;8.940;2023-03-14T16:32:33;9.10;91.80
17671;DHT22;8954;48.694;8.940;2023-03-14T16:35:00;9.10;91.90
17671;DHT22;8954;48.694;8.940;2023-03-14T16:37:26;8.90;92.00
17671;DHT22;8954;48.694;8.940;2023-03-14T16:39:52;8.80;92.50
17671;DHT22;8954;48.694;8.940;2023-03-14T16:42:17;8.70;92.70
17671;DHT22;8954;48.694;8.940;2023-03-14T16:44:44;8.80;93.10
17671;DHT22;8954;48.694;8.940;2023-03-14T16:47:10;8.70;93.00
17671;DHT22;8954;48.694;8.940;2023-03-14T16:49:35;8.60;93.50
17671;DHT22;8954;48.694;8.940;2023-03-14T16:52:03;8.60;93.50
17671;DHT22;8954;48.694;8.940;2023-03-14T16:54:32;8.60;93.80
17671;DHT22;8954;48.694;8.940;2023-03-14T16:56:58;8.60;94.00
17671;DHT22;8954;48.694;8.940;2023-03-14T16:59:23;8.60;94.70
17671;DHT22;8954;48.694;8.940;2023-03-14T17:01:51;8.50;95.40